sensor_id;sensor_type;location;lat;lon;timestamp;P1;durP1;ratioP1;P2;durP2;ratioP2
58208;SDS011;44006;52.028;4.696;2023-06-05T00:00:01;8.95;;;5.10;;
58208;SDS011;44006;52.028;4.696;2023-06-05T00:02:26;10.68;;;5.40;;
58208;SDS011;44006;52.028;4.696;2023-06-05T00:04:53;7.32;;;5.30;;
58208;SDS011;44006;52.028;4.696;2023-06-05T00:07:18;8.13;;;5.53;;
58208;SDS011;44006;52.028;4.696;2023-06-05T00:09:43;8.93;;;5.55;;
58208;SDS011;44006;52.028;4.696;2023-06-05T00:12:09;7.72;;;5.70;;
58208;SDS011;44006;52.028;4.696;2023-06-05T00:14:34;8.15;;;5.47;;
58208;SDS011;44006;52.028;4.696;2023-06-05T00:16:59;10.30;;;6.20;;
58208;SDS011;44006;52.028;4.696;2023-06-05T00:19:25;8.00;;;5.70;;
58208;SDS011;44006;52.028;4.696;2023-06-05T00:21:50;10.93;;;5.78;;
58208;SDS011;44006;52.028;4.696;2023-06-05T00:24:17;9.23;;;5.53;;
58208;SDS011;44006;52.028;4.696;2023-06-05T00:26:43;9.48;;;6.20;;
58208;SDS011;44006;52.028;4.696;2023-06-05T00:29:08;12.43;;;6.38;;
58208;SDS011;44006;52.028;4.696;2023-06-05T00:31:33;11.60;;;6.00;;
58208;SDS011;44006;52.028;4.696;2023-06-05T00:33:58;9.25;;;6.20;;
58208;SDS011;44006;52.028;4.696;2023-06-05T00:36:24;8.38;;;6.25;;
58208;SDS011;44006;52.028;4.696;2023-06-05T00:38:49;10.70;;;6.18;;
58208;SDS011;44006;52.028;4.696;2023-06-05T00:41:15;9.13;;;6.38;;
58208;SDS011;44006;52.028;4.696;2023-06-05T00:43:40;9.18;;;6.03;;
58208;SDS011;44006;52.028;4.696;2023-06-05T00:46:06;9.50;;;5.63;;
58208;SDS011;44006;52.028;4.696;2023-06-05T00:48:32;8.95;;;6.13;;
58208;SDS011;44006;52.028;4.696;2023-06-05T00:50:58;12.80;;;5.65;;
58208;SDS011;44006;52.028;4.696;2023-06-05T00:53:24;10.10;;;6.18;;
58208;SDS011;44006;52.028;4.696;2023-06-05T00:55:49;9.68;;;6.07;;
58208;SDS011;44006;52.028;4.696;2023-06-05T00:58:15;12.65;;;6.05;;
58208;SDS011;44006;52.028;4.696;2023-06-05T01:00:41;13.45;;;6.95;;
58208;SDS011;44006;52.028;4.696;2023-06-05T01:03:07;9.27;;;6.07;;
58208;SDS011;44006;52.028;4.696;2023-06-05T01:05:33;12.32;;;6.00;;
58208;SDS011;44006;52.028;4.696;2023-06-05T01:07:59;7.55;;;5.70;;
58208;SDS011;44006;52.028;4.696;2023-06-05T01:10:30;11.45;;;6.00;;
58208;SDS011;44006;52.028;4.696;2023-06-05T01:15:24;9.70;;;6.35;;
58208;SDS011;44006;52.028;4.696;2023-06-05T01:17:59;7.80;;;5.35;;
58208;SDS011;44006;52.028;4.696;2023-06-05T01:20:31;12.20;;;6.68;;
58208;SDS011;44006;52.028;4.696;2023-06-05T01:22:57;9.40;;;6.57;;
58208;SDS011;44006;52.028;4.696;2023-06-05T01:25:22;7.30;;;5.65;;
58208;SDS011;44006;52.028;4.696;2023-06-05T01:27:52;9.40;;;6.15;;
58208;SDS011;44006;52.028;4.696;2023-06-05T01:30:40;10.18;;;6.38;;
58208;SDS011;44006;52.028;4.696;2023-06-05T01:33:13;10.35;;;6.38;;
58208;SDS011;44006;52.028;4.696;2023-06-05T01:35:42;11.65;;;7.00;;
58208;SDS011;44006;52.028;4.696;2023-06-05T01:38:10;8.93;;;6.35;;
58208;SDS011;44006;52.028;4.696;2023-06-05T01:40:36;10.05;;;6.00;;
58208;SDS011;44006;52.028;4.696;2023-06-05T01:43:02;9.73;;;5.95;;
58208;SDS011;44006;52.028;4.696;2023-06-05T01:45:28;9.40;;;6.38;;
58208;SDS011;44006;52.028;4.696;2023-06-05T01:47:53;10.63;;;5.93;;
58208;SDS011;44006;52.028;4.696;2023-06-05T01:50:20;10.40;;;6.30;;
58208;SDS011;44006;52.028;4.696;2023-06-05T01:52:45;8.18;;;6.05;;
58208;SDS011;44006;52.028;4.696;2023-06-05T01:55:21;12.00;;;6.20;;
58208;SDS011;44006;52.028;4.696;2023-06-05T01:57:49;10.75;;;6.30;;
58208;SDS011;44006;52.028;4.696;2023-06-05T02:00:14;11.00;;;6.22;;
58208;SDS011;44006;52.028;4.696;2023-06-05T02:02:41;10.32;;;6.28;;
58208;SDS011;44006;52.028;4.696;2023-06-05T02:05:07;11.25;;;6.18;;
58208;SDS011;44006;52.028;4.696;2023-06-05T02:07:33;10.32;;;6.03;;
58208;SDS011;44006;52.028;4.696;2023-06-05T02:10:01;11.20;;;5.78;;
58208;SDS011;44006;52.028;4.696;2023-06-05T02:12:27;9.90;;;5.68;;
58208;SDS011;44006;52.028;4.696;2023-06-05T02:14:54;9.98;;;6.03;;
58208;SDS011;44006;52.028;4.696;2023-06-05T02:17:21;10.00;;;6.35;;
58208;SDS011;44006;52.028;4.696;2023-06-05T02:19:49;9.38;;;5.95;;
58208;SDS011;44006;52.028;4.696;2023-06-05T02:22:14;10.60;;;6.10;;
58208;SDS011;44006;52.028;4.696;2023-06-05T02:24:40;8.85;;;6.10;;
58208;SDS011;44006;52.028;4.696;2023-06-05T02:27:05;8.40;;;5.90;;
58208;SDS011;44006;52.028;4.696;2023-06-05T02:29:33;11.45;;;6.07;;
58208;SDS011;44006;52.028;4.696;2023-06-05T02:31:58;9.52;;;5.80;;
58208;SDS011;44006;52.028;4.696;2023-06-05T02:34:23;10.73;;;6.80;;
58208;SDS011;44006;52.028;4.696;2023-06-05T02:36:50;11.75;;;6.22;;
58208;SDS011;44006;52.028;4.696;2023-06-05T02:39:15;8.57;;;6.03;;
58208;SDS011;44006;52.028;4.696;2023-06-05T02:41:41;10.75;;;6.28;;
58208;SDS011;44006;52.028;4.696;2023-06-05T02:44:07;7.32;;;5.80;;
58208;SDS011;44006;52.028;4.696;2023-06-05T02:46:32;9.75;;;5.90;;
58208;SDS011;44006;52.028;4.696;2023-06-05T02:48:58;9.85;;;5.88;;
58208;SDS011;44006;52.028;4.696;2023-06-05T02:51:23;10.13;;;5.80;;
58208;SDS011;44006;52.028;4.696;2023-06-05T02:53:48;9.05;;;5.72;;
58208;SDS011;44006;52.028;4.696;2023-06-05T02:56:13;8.90;;;5.70;;
58208;SDS011;44006;52.028;4.696;2023-06-05T02:58:39;8.90;;;6.05;;
58208;SDS011;44006;52.028;4.696;2023-06-05T03:01:08;10.60;;;6.32;;
58208;SDS011;44006;52.028;4.696;2023-06-05T03:03:35;8.55;;;6.03;;
58208;SDS011;44006;52.028;4.696;2023-06-05T03:06:01;11.68;;;6.70;;
58208;SDS011;44006;52.028;4.696;2023-06-05T03:08:33;9.90;;;6.82;;
58208;SDS011;44006;52.028;4.696;2023-06-05T03:10:59;10.73;;;6.43;;
58208;SDS011;44006;52.028;4.696;2023-06-05T03:13:25;11.48;;;6.60;;
58208;SDS011;44006;52.028;4.696;2023-06-05T03:15:50;11.38;;;6.38;;
58208;SDS011;44006;52.028;4.696;2023-06-05T03:18:20;11.15;;;6.95;;
58208;SDS011;44006;52.028;4.696;2023-06-05T03:20:47;11.70;;;7.00;;
58208;SDS011;44006;52.028;4.696;2023-06-05T03:23:12;10.88;;;6.50;;
58208;SDS011;44006;52.028;4.696;2023-06-05T03:25:38;8.90;;;6.60;;
58208;SDS011;44006;52.028;4.696;2023-06-05T03:28:04;10.10;;;6.85;;
58208;SDS011;44006;52.028;4.696;2023-06-05T03:30:29;10.43;;;7.18;;
58208;SDS011;44006;52.028;4.696;2023-06-05T03:32:55;11.73;;;7.05;;
58208;SDS011;44006;52.028;4.696;2023-06-05T03:35:20;13.32;;;7.43;;
58208;SDS011;44006;52.028;4.696;2023-06-05T03:37:45;11.65;;;6.50;;
58208;SDS011;44006;52.028;4.696;2023-06-05T03:40:10;12.15;;;7.22;;
58208;SDS011;44006;52.028;4.696;2023-06-05T03:42:37;10.60;;;6.70;;
58208;SDS011;44006;52.028;4.696;2023-06-05T03:45:02;10.55;;;6.57;;
58208;SDS011;44006;52.028;4.696;2023-06-05T03:47:27;11.57;;;7.40;;
58208;SDS011;44006;52.028;4.696;2023-06-05T03:49:53;12.00;;;7.00;;
58208;SDS011;44006;52.028;4.696;2023-06-05T03:52:20;10.52;;;6.75;;
58208;SDS011;44006;52.028;4.696;2023-06-05T03:54:49;10.07;;;6.95;;
58208;SDS011;44006;52.028;4.696;2023-06-05T03:57:18;9.60;;;6.82;;
58208;SDS011;44006;52.028;4.696;2023-06-05T03:59:45;12.60;;;6.95;;
58208;SDS011;44006;52.028;4.696;2023-06-05T04:02:12;13.70;;;7.43;;
58208;SDS011;44006;52.028;4.696;2023-06-05T04:04:38;11.52;;;7.30;;
58208;SDS011;44006;52.028;4.696;2023-06-05T04:07:03;11.43;;;6.90;;
58208;SDS011;44006;52.028;4.696;2023-06-05T04:09:28;14.10;;;6.88;;
58208;SDS011;44006;52.028;4.696;2023-06-05T04:11:54;15.85;;;7.72;;
58208;SDS011;44006;52.028;4.696;2023-06-05T04:14:20;14.02;;;7.40;;
58208;SDS011;44006;52.028;4.696;2023-06-05T04:16:45;11.70;;;7.32;;
58208;SDS011;44006;52.028;4.696;2023-06-05T04:19:11;11.48;;;7.47;;
58208;SDS011;44006;52.028;4.696;2023-06-05T04:21:37;11.02;;;6.70;;
58208;SDS011;44006;52.028;4.696;2023-06-05T04:24:05;11.52;;;7.40;;
58208;SDS011;44006;52.028;4.696;2023-06-05T04:26:35;13.60;;;7.50;;
58208;SDS011;44006;52.028;4.696;2023-06-05T04:29:01;11.70;;;7.65;;
58208;SDS011;44006;52.028;4.696;2023-06-05T04:31:44;10.18;;;7.15;;
58208;SDS011;44006;52.028;4.696;2023-06-05T04:34:09;11.18;;;7.40;;
58208;SDS011;44006;52.028;4.696;2023-06-05T04:36:34;13.15;;;7.13;;
58208;SDS011;44006;52.028;4.696;2023-06-05T04:39:01;13.40;;;6.97;;
58208;SDS011;44006;52.028;4.696;2023-06-05T04:41:30;14.15;;;6.88;;
58208;SDS011;44006;52.028;4.696;2023-06-05T04:43:55;10.30;;;6.28;;
58208;SDS011;44006;52.028;4.696;2023-06-05T04:46:23;9.55;;;6.07;;
58208;SDS011;44006;52.028;4.696;2023-06-05T04:48:48;9.10;;;6.07;;
58208;SDS011;44006;52.028;4.696;2023-06-05T04:51:13;12.20;;;6.55;;
58208;SDS011;44006;52.028;4.696;2023-06-05T04:53:39;8.68;;;5.80;;
58208;SDS011;44006;52.028;4.696;2023-06-05T04:56:07;9.45;;;6.18;;
58208;SDS011;44006;52.028;4.696;2023-06-05T04:58:32;8.77;;;5.72;;
58208;SDS011;44006;52.028;4.696;2023-06-05T05:00:57;9.15;;;5.85;;
58208;SDS011;44006;52.028;4.696;2023-06-05T05:03:30;10.18;;;5.95;;
58208;SDS011;44006;52.028;4.696;2023-06-05T05:05:55;9.63;;;5.85;;
58208;SDS011;44006;52.028;4.696;2023-06-05T05:08:20;14.75;;;5.95;;
58208;SDS011;44006;52.028;4.696;2023-06-05T05:10:46;9.98;;;5.57;;
58208;SDS011;44006;52.028;4.696;2023-06-05T05:13:11;9.77;;;5.70;;
58208;SDS011;44006;52.028;4.696;2023-06-05T05:15:37;10.27;;;5.82;;
58208;SDS011;44006;52.028;4.696;2023-06-05T05:18:02;9.20;;;6.25;;
58208;SDS011;44006;52.028;4.696;2023-06-05T05:20:28;9.55;;;5.95;;
58208;SDS011;44006;52.028;4.696;2023-06-05T05:22:55;10.48;;;6.70;;
58208;SDS011;44006;52.028;4.696;2023-06-05T05:25:22;8.15;;;5.60;;
58208;SDS011;44006;52.028;4.696;2023-06-05T05:27:47;10.33;;;6.67;;
58208;SDS011;44006;52.028;4.696;2023-06-05T05:30:13;10.80;;;6.95;;
58208;SDS011;44006;52.028;4.696;2023-06-05T05:32:38;9.68;;;6.70;;
58208;SDS011;44006;52.028;4.696;2023-06-05T05:35:03;10.23;;;7.10;;
58208;SDS011;44006;52.028;4.696;2023-06-05T05:37:29;11.80;;;6.55;;
58208;SDS011;44006;52.028;4.696;2023-06-05T05:39:55;10.10;;;7.07;;
58208;SDS011;44006;52.028;4.696;2023-06-05T05:42:20;11.07;;;7.07;;
58208;SDS011;44006;52.028;4.696;2023-06-05T05:44:45;10.80;;;6.70;;
58208;SDS011;44006;52.028;4.696;2023-06-05T05:47:11;12.52;;;7.55;;
58208;SDS011;44006;52.028;4.696;2023-06-05T05:49:36;12.15;;;6.90;;
58208;SDS011;44006;52.028;4.696;2023-06-05T05:52:01;11.52;;;7.15;;
58208;SDS011;44006;52.028;4.696;2023-06-05T05:54:27;9.68;;;7.10;;
58208;SDS011;44006;52.028;4.696;2023-06-05T05:56:52;10.13;;;6.38;;
58208;SDS011;44006;52.028;4.696;2023-06-05T05:59:18;11.32;;;7.22;;
58208;SDS011;44006;52.028;4.696;2023-06-05T06:01:43;13.27;;;7.38;;
58208;SDS011;44006;52.028;4.696;2023-06-05T06:04:10;11.68;;;7.38;;
58208;SDS011;44006;52.028;4.696;2023-06-05T06:06:36;12.48;;;7.85;;
58208;SDS011;44006;52.028;4.696;2023-06-05T06:09:02;12.43;;;8.23;;
58208;SDS011;44006;52.028;4.696;2023-06-05T06:11:31;13.93;;;7.43;;
58208;SDS011;44006;52.028;4.696;2023-06-05T06:13:57;8.68;;;6.72;;
58208;SDS011;44006;52.028;4.696;2023-06-05T06:16:22;11.88;;;6.80;;
58208;SDS011;44006;52.028;4.696;2023-06-05T06:18:47;11.23;;;7.25;;
58208;SDS011;44006;52.028;4.696;2023-06-05T06:21:12;13.32;;;7.93;;
58208;SDS011;44006;52.028;4.696;2023-06-05T06:23:38;9.95;;;7.18;;
58208;SDS011;44006;52.028;4.696;2023-06-05T06:26:03;10.32;;;7.18;;
58208;SDS011;44006;52.028;4.696;2023-06-05T06:28:31;10.52;;;6.90;;
58208;SDS011;44006;52.028;4.696;2023-06-05T06:30:57;9.85;;;7.07;;
58208;SDS011;44006;52.028;4.696;2023-06-05T06:33:22;7.80;;;6.45;;
58208;SDS011;44006;52.028;4.696;2023-06-05T06:35:48;10.60;;;6.28;;
58208;SDS011;44006;52.028;4.696;2023-06-05T06:38:13;11.77;;;6.95;;
58208;SDS011;44006;52.028;4.696;2023-06-05T06:40:38;11.68;;;6.40;;
58208;SDS011;44006;52.028;4.696;2023-06-05T06:43:04;8.73;;;6.22;;
58208;SDS011;44006;52.028;4.696;2023-06-05T06:45:29;9.35;;;6.32;;
58208;SDS011;44006;52.028;4.696;2023-06-05T06:47:54;8.43;;;5.78;;
58208;SDS011;44006;52.028;4.696;2023-06-05T06:50:20;8.73;;;6.60;;
58208;SDS011;44006;52.028;4.696;2023-06-05T06:52:45;10.48;;;6.53;;
58208;SDS011;44006;52.028;4.696;2023-06-05T06:55:11;8.55;;;5.85;;
58208;SDS011;44006;52.028;4.696;2023-06-05T06:57:37;8.80;;;5.75;;
58208;SDS011;44006;52.028;4.696;2023-06-05T07:00:02;9.18;;;5.65;;
58208;SDS011;44006;52.028;4.696;2023-06-05T07:02:35;8.35;;;5.43;;
58208;SDS011;44006;52.028;4.696;2023-06-05T07:05:01;8.55;;;5.78;;
58208;SDS011;44006;52.028;4.696;2023-06-05T07:07:26;6.00;;;5.00;;
58208;SDS011;44006;52.028;4.696;2023-06-05T07:09:54;9.18;;;5.55;;
58208;SDS011;44006;52.028;4.696;2023-06-05T07:12:19;8.52;;;5.25;;
58208;SDS011;44006;52.028;4.696;2023-06-05T07:14:45;8.13;;;4.93;;
58208;SDS011;44006;52.028;4.696;2023-06-05T07:17:10;7.78;;;4.88;;
58208;SDS011;44006;52.028;4.696;2023-06-05T07:19:36;8.48;;;5.25;;
58208;SDS011;44006;52.028;4.696;2023-06-05T07:22:01;6.82;;;4.47;;
58208;SDS011;44006;52.028;4.696;2023-06-05T07:24:29;9.43;;;4.78;;
58208;SDS011;44006;52.028;4.696;2023-06-05T07:26:55;10.13;;;5.00;;
58208;SDS011;44006;52.028;4.696;2023-06-05T07:29:24;6.75;;;4.50;;
58208;SDS011;44006;52.028;4.696;2023-06-05T07:31:50;8.48;;;4.70;;
58208;SDS011;44006;52.028;4.696;2023-06-05T07:34:17;7.10;;;3.90;;
58208;SDS011;44006;52.028;4.696;2023-06-05T07:36:44;7.88;;;4.22;;
58208;SDS011;44006;52.028;4.696;2023-06-05T07:39:10;5.43;;;4.22;;
58208;SDS011;44006;52.028;4.696;2023-06-05T07:41:36;7.65;;;4.25;;
58208;SDS011;44006;52.028;4.696;2023-06-05T07:44:01;6.72;;;4.20;;
58208;SDS011;44006;52.028;4.696;2023-06-05T07:46:27;6.47;;;3.60;;
58208;SDS011;44006;52.028;4.696;2023-06-05T07:48:52;6.30;;;3.70;;
58208;SDS011;44006;52.028;4.696;2023-06-05T07:51:18;8.30;;;3.75;;
58208;SDS011;44006;52.028;4.696;2023-06-05T07:53:43;6.70;;;3.78;;
58208;SDS011;44006;52.028;4.696;2023-06-05T07:56:10;4.43;;;3.33;;
58208;SDS011;44006;52.028;4.696;2023-06-05T07:58:37;5.72;;;3.50;;
58208;SDS011;44006;52.028;4.696;2023-06-05T08:01:02;6.28;;;3.17;;
58208;SDS011;44006;52.028;4.696;2023-06-05T08:03:31;4.80;;;3.33;;
58208;SDS011;44006;52.028;4.696;2023-06-05T08:05:57;4.13;;;3.00;;
58208;SDS011;44006;52.028;4.696;2023-06-05T08:08:22;6.63;;;3.22;;
58208;SDS011;44006;52.028;4.696;2023-06-05T08:10:47;6.53;;;3.55;;
58208;SDS011;44006;52.028;4.696;2023-06-05T08:13:12;5.60;;;3.28;;
58208;SDS011;44006;52.028;4.696;2023-06-05T08:15:38;6.05;;;3.30;;
58208;SDS011;44006;52.028;4.696;2023-06-05T08:18:03;4.93;;;3.45;;
58208;SDS011;44006;52.028;4.696;2023-06-05T08:20:29;6.97;;;3.85;;
58208;SDS011;44006;52.028;4.696;2023-06-05T08:22:55;5.32;;;3.38;;
58208;SDS011;44006;52.028;4.696;2023-06-05T08:25:23;4.70;;;2.83;;
58208;SDS011;44006;52.028;4.696;2023-06-05T08:27:48;4.43;;;3.40;;
58208;SDS011;44006;52.028;4.696;2023-06-05T08:30:13;7.13;;;3.50;;
58208;SDS011;44006;52.028;4.696;2023-06-05T08:32:38;4.25;;;3.30;;
58208;SDS011;44006;52.028;4.696;2023-06-05T08:35:05;4.22;;;2.92;;
58208;SDS011;44006;52.028;4.696;2023-06-05T08:37:32;7.10;;;3.38;;
58208;SDS011;44006;52.028;4.696;2023-06-05T08:39:57;6.15;;;2.97;;
58208;SDS011;44006;52.028;4.696;2023-06-05T08:42:25;6.47;;;3.50;;
58208;SDS011;44006;52.028;4.696;2023-06-05T08:44:53;5.03;;;3.33;;
58208;SDS011;44006;52.028;4.696;2023-06-05T08:47:19;4.55;;;3.28;;
58208;SDS011;44006;52.028;4.696;2023-06-05T08:49:45;5.32;;;3.30;;
58208;SDS011;44006;52.028;4.696;2023-06-05T08:52:11;4.05;;;3.17;;
58208;SDS011;44006;52.028;4.696;2023-06-05T08:54:38;7.38;;;3.35;;
58208;SDS011;44006;52.028;4.696;2023-06-05T08:57:05;4.95;;;3.20;;
58208;SDS011;44006;52.028;4.696;2023-06-05T08:59:32;5.07;;;3.20;;
58208;SDS011;44006;52.028;4.696;2023-06-05T09:01:57;6.10;;;3.00;;
58208;SDS011;44006;52.028;4.696;2023-06-05T09:04:22;4.93;;;3.17;;
58208;SDS011;44006;52.028;4.696;2023-06-05T09:06:49;3.63;;;2.83;;
58208;SDS011;44006;52.028;4.696;2023-06-05T09:09:17;6.10;;;3.13;;
58208;SDS011;44006;52.028;4.696;2023-06-05T09:11:43;5.28;;;3.30;;
58208;SDS011;44006;52.028;4.696;2023-06-05T09:14:08;5.63;;;3.47;;
58208;SDS011;44006;52.028;4.696;2023-06-05T09:18:59;4.85;;;3.00;;
58208;SDS011;44006;52.028;4.696;2023-06-05T09:21:25;3.92;;;3.13;;
58208;SDS011;44006;52.028;4.696;2023-06-05T09:24:12;4.63;;;3.40;;
58208;SDS011;44006;52.028;4.696;2023-06-05T09:26:57;7.95;;;3.08;;
58208;SDS011;44006;52.028;4.696;2023-06-05T09:29:23;4.32;;;3.30;;
58208;SDS011;44006;52.028;4.696;2023-06-05T09:31:50;5.97;;;3.50;;
58208;SDS011;44006;52.028;4.696;2023-06-05T09:34:22;7.13;;;3.60;;
58208;SDS011;44006;52.028;4.696;2023-06-05T09:36:48;5.80;;;3.65;;
58208;SDS011;44006;52.028;4.696;2023-06-05T09:39:16;6.05;;;3.80;;
58208;SDS011;44006;52.028;4.696;2023-06-05T09:41:46;5.43;;;4.25;;
58208;SDS011;44006;52.028;4.696;2023-06-05T09:44:11;5.32;;;3.75;;
58208;SDS011;44006;52.028;4.696;2023-06-05T09:49:21;9.43;;;4.00;;
58208;SDS011;44006;52.028;4.696;2023-06-05T09:51:46;8.68;;;4.70;;
58208;SDS011;44006;52.028;4.696;2023-06-05T09:54:13;7.60;;;4.20;;
58208;SDS011;44006;52.028;4.696;2023-06-05T09:56:41;8.20;;;4.53;;
58208;SDS011;44006;52.028;4.696;2023-06-05T09:59:07;7.05;;;4.25;;
58208;SDS011;44006;52.028;4.696;2023-06-05T10:01:33;6.35;;;4.50;;
58208;SDS011;44006;52.028;4.696;2023-06-05T10:04:02;6.30;;;4.20;;
58208;SDS011;44006;52.028;4.696;2023-06-05T10:06:30;8.13;;;4.78;;
58208;SDS011;44006;52.028;4.696;2023-06-05T10:08:57;5.55;;;4.47;;
58208;SDS011;44006;52.028;4.696;2023-06-05T10:11:23;6.70;;;4.47;;
58208;SDS011;44006;52.028;4.696;2023-06-05T10:13:49;6.47;;;4.55;;
58208;SDS011;44006;52.028;4.696;2023-06-05T10:16:16;5.30;;;4.03;;
58208;SDS011;44006;52.028;4.696;2023-06-05T10:18:41;6.70;;;4.50;;
58208;SDS011;44006;52.028;4.696;2023-06-05T10:21:06;6.37;;;4.13;;
58208;SDS011;44006;52.028;4.696;2023-06-05T10:23:32;5.88;;;3.75;;
58208;SDS011;44006;52.028;4.696;2023-06-05T10:25:57;7.82;;;4.55;;
58208;SDS011;44006;52.028;4.696;2023-06-05T10:28:34;6.70;;;4.93;;
58208;SDS011;44006;52.028;4.696;2023-06-05T10:38:36;5.90;;;4.45;;
58208;SDS011;44006;52.028;4.696;2023-06-05T10:41:03;5.68;;;4.10;;
58208;SDS011;44006;52.028;4.696;2023-06-05T10:43:31;6.25;;;3.78;;
58208;SDS011;44006;52.028;4.696;2023-06-05T10:45:58;5.53;;;4.20;;
58208;SDS011;44006;52.028;4.696;2023-06-05T10:53:51;6.78;;;4.47;;
58208;SDS011;44006;52.028;4.696;2023-06-05T10:59:13;7.70;;;4.55;;
58208;SDS011;44006;52.028;4.696;2023-06-05T11:01:39;8.15;;;4.63;;
58208;SDS011;44006;52.028;4.696;2023-06-05T11:04:05;9.85;;;4.28;;
58208;SDS011;44006;52.028;4.696;2023-06-05T11:06:30;6.68;;;4.38;;
58208;SDS011;44006;52.028;4.696;2023-06-05T11:09:12;6.68;;;4.68;;
58208;SDS011;44006;52.028;4.696;2023-06-05T11:11:57;9.40;;;5.10;;
58208;SDS011;44006;52.028;4.696;2023-06-05T11:14:23;7.85;;;4.70;;
58208;SDS011;44006;52.028;4.696;2023-06-05T11:16:48;8.82;;;4.43;;
58208;SDS011;44006;52.028;4.696;2023-06-05T11:24:32;8.00;;;5.10;;
58208;SDS011;44006;52.028;4.696;2023-06-05T11:26:59;6.97;;;4.95;;
58208;SDS011;44006;52.028;4.696;2023-06-05T11:29:25;6.60;;;5.00;;
58208;SDS011;44006;52.028;4.696;2023-06-05T11:31:51;6.82;;;5.03;;
58208;SDS011;44006;52.028;4.696;2023-06-05T11:34:17;8.88;;;4.90;;
58208;SDS011;44006;52.028;4.696;2023-06-05T11:36:42;7.13;;;5.05;;
58208;SDS011;44006;52.028;4.696;2023-06-05T11:39:08;9.27;;;5.07;;
58208;SDS011;44006;52.028;4.696;2023-06-05T11:41:33;7.32;;;5.22;;
58208;SDS011;44006;52.028;4.696;2023-06-05T11:43:58;8.00;;;5.07;;
58208;SDS011;44006;52.028;4.696;2023-06-05T11:46:37;6.97;;;5.00;;
58208;SDS011;44006;52.028;4.696;2023-06-05T11:49:03;6.93;;;4.97;;
58208;SDS011;44006;52.028;4.696;2023-06-05T11:51:32;6.70;;;5.38;;
58208;SDS011;44006;52.028;4.696;2023-06-05T11:53:58;9.30;;;4.53;;
58208;SDS011;44006;52.028;4.696;2023-06-05T11:56:24;7.07;;;4.75;;
58208;SDS011;44006;52.028;4.696;2023-06-05T11:58:52;6.47;;;4.85;;
58208;SDS011;44006;52.028;4.696;2023-06-05T12:01:18;8.00;;;5.25;;
58208;SDS011;44006;52.028;4.696;2023-06-05T12:03:47;8.30;;;5.25;;
58208;SDS011;44006;52.028;4.696;2023-06-05T12:06:12;7.35;;;4.82;;
58208;SDS011;44006;52.028;4.696;2023-06-05T12:08:38;7.70;;;4.78;;
58208;SDS011;44006;52.028;4.696;2023-06-05T12:11:18;8.52;;;5.40;;
58208;SDS011;44006;52.028;4.696;2023-06-05T12:13:56;8.00;;;5.22;;
58208;SDS011;44006;52.028;4.696;2023-06-05T12:18:58;6.65;;;5.28;;
58208;SDS011;44006;52.028;4.696;2023-06-05T12:21:24;6.13;;;4.78;;
58208;SDS011;44006;52.028;4.696;2023-06-05T12:23:50;7.25;;;5.00;;
58208;SDS011;44006;52.028;4.696;2023-06-05T12:26:15;9.82;;;5.18;;
58208;SDS011;44006;52.028;4.696;2023-06-05T12:28:41;6.82;;;5.38;;
58208;SDS011;44006;52.028;4.696;2023-06-05T12:31:07;7.22;;;5.63;;
58208;SDS011;44006;52.028;4.696;2023-06-05T12:33:32;6.93;;;5.15;;
58208;SDS011;44006;52.028;4.696;2023-06-05T12:38:29;10.40;;;5.90;;
58208;SDS011;44006;52.028;4.696;2023-06-05T12:40:54;9.63;;;5.47;;
58208;SDS011;44006;52.028;4.696;2023-06-05T12:43:20;6.88;;;5.00;;
58208;SDS011;44006;52.028;4.696;2023-06-05T12:45:45;15.68;;;6.43;;
58208;SDS011;44006;52.028;4.696;2023-06-05T12:48:10;12.32;;;6.10;;
58208;SDS011;44006;52.028;4.696;2023-06-05T12:50:37;9.88;;;6.05;;
58208;SDS011;44006;52.028;4.696;2023-06-05T12:53:03;9.80;;;6.30;;
58208;SDS011;44006;52.028;4.696;2023-06-05T12:55:28;9.95;;;5.85;;
58208;SDS011;44006;52.028;4.696;2023-06-05T12:57:53;9.82;;;6.15;;
58208;SDS011;44006;52.028;4.696;2023-06-05T13:00:18;10.00;;;5.78;;
58208;SDS011;44006;52.028;4.696;2023-06-05T13:02:44;8.68;;;6.57;;
58208;SDS011;44006;52.028;4.696;2023-06-05T13:05:13;10.68;;;6.50;;
58208;SDS011;44006;52.028;4.696;2023-06-05T13:07:39;12.05;;;6.47;;
58208;SDS011;44006;52.028;4.696;2023-06-05T13:10:05;12.88;;;6.40;;
58208;SDS011;44006;52.028;4.696;2023-06-05T13:12:30;9.98;;;6.35;;
58208;SDS011;44006;52.028;4.696;2023-06-05T13:14:56;8.88;;;6.78;;
58208;SDS011;44006;52.028;4.696;2023-06-05T13:17:21;9.00;;;6.47;;
58208;SDS011;44006;52.028;4.696;2023-06-05T13:19:48;10.02;;;6.22;;
58208;SDS011;44006;52.028;4.696;2023-06-05T13:22:13;7.53;;;6.10;;
58208;SDS011;44006;52.028;4.696;2023-06-05T13:24:39;8.15;;;5.85;;
58208;SDS011;44006;52.028;4.696;2023-06-05T13:27:05;10.27;;;6.07;;
58208;SDS011;44006;52.028;4.696;2023-06-05T13:29:30;8.95;;;5.70;;
58208;SDS011;44006;52.028;4.696;2023-06-05T13:31:55;10.03;;;6.40;;
58208;SDS011;44006;52.028;4.696;2023-06-05T13:34:21;8.50;;;6.35;;
58208;SDS011;44006;52.028;4.696;2023-06-05T13:36:46;11.70;;;6.28;;
58208;SDS011;44006;52.028;4.696;2023-06-05T13:39:11;8.70;;;5.63;;
58208;SDS011;44006;52.028;4.696;2023-06-05T13:41:36;11.35;;;7.00;;
58208;SDS011;44006;52.028;4.696;2023-06-05T13:44:02;9.95;;;6.82;;
58208;SDS011;44006;52.028;4.696;2023-06-05T13:46:27;12.40;;;7.35;;
58208;SDS011;44006;52.028;4.696;2023-06-05T13:48:52;9.50;;;6.67;;
58208;SDS011;44006;52.028;4.696;2023-06-05T13:51:17;11.50;;;7.13;;
58208;SDS011;44006;52.028;4.696;2023-06-05T13:53:44;10.30;;;7.13;;
58208;SDS011;44006;52.028;4.696;2023-06-05T13:56:10;8.38;;;6.85;;
58208;SDS011;44006;52.028;4.696;2023-06-05T13:58:35;12.20;;;6.72;;
58208;SDS011;44006;52.028;4.696;2023-06-05T14:01:00;8.10;;;6.47;;
58208;SDS011;44006;52.028;4.696;2023-06-05T14:03:26;11.60;;;7.10;;
58208;SDS011;44006;52.028;4.696;2023-06-05T14:05:51;8.40;;;6.70;;
58208;SDS011;44006;52.028;4.696;2023-06-05T14:08:16;8.00;;;6.47;;
58208;SDS011;44006;52.028;4.696;2023-06-05T14:10:42;9.75;;;6.38;;
58208;SDS011;44006;52.028;4.696;2023-06-05T14:13:07;9.05;;;5.63;;
58208;SDS011;44006;52.028;4.696;2023-06-05T14:15:33;12.05;;;6.47;;
58208;SDS011;44006;52.028;4.696;2023-06-05T14:18:00;11.90;;;6.60;;
58208;SDS011;44006;52.028;4.696;2023-06-05T14:20:25;7.25;;;5.50;;
58208;SDS011;44006;52.028;4.696;2023-06-05T14:22:51;8.80;;;6.57;;
58208;SDS011;44006;52.028;4.696;2023-06-05T14:25:16;11.60;;;6.30;;
58208;SDS011;44006;52.028;4.696;2023-06-05T14:27:42;9.88;;;6.28;;
58208;SDS011;44006;52.028;4.696;2023-06-05T14:30:07;9.77;;;6.50;;
58208;SDS011;44006;52.028;4.696;2023-06-05T14:32:34;8.30;;;6.35;;
58208;SDS011;44006;52.028;4.696;2023-06-05T14:34:59;8.07;;;5.88;;
58208;SDS011;44006;52.028;4.696;2023-06-05T14:37:24;9.70;;;6.23;;
58208;SDS011;44006;52.028;4.696;2023-06-05T14:39:49;11.35;;;6.70;;
58208;SDS011;44006;52.028;4.696;2023-06-05T14:42:16;9.88;;;6.47;;
58208;SDS011;44006;52.028;4.696;2023-06-05T14:44:41;8.40;;;6.10;;
58208;SDS011;44006;52.028;4.696;2023-06-05T14:47:06;7.93;;;5.85;;
58208;SDS011;44006;52.028;4.696;2023-06-05T14:49:32;8.57;;;5.90;;
58208;SDS011;44006;52.028;4.696;2023-06-05T14:51:57;9.10;;;6.45;;
58208;SDS011;44006;52.028;4.696;2023-06-05T14:54:22;9.05;;;6.25;;
58208;SDS011;44006;52.028;4.696;2023-06-05T14:56:47;9.57;;;6.72;;
58208;SDS011;44006;52.028;4.696;2023-06-05T14:59:13;7.43;;;5.40;;
58208;SDS011;44006;52.028;4.696;2023-06-05T15:01:41;9.45;;;5.95;;
58208;SDS011;44006;52.028;4.696;2023-06-05T15:04:06;8.38;;;5.80;;
58208;SDS011;44006;52.028;4.696;2023-06-05T15:06:31;9.33;;;6.03;;
58208;SDS011;44006;52.028;4.696;2023-06-05T15:08:56;11.20;;;5.65;;
58208;SDS011;44006;52.028;4.696;2023-06-05T15:11:22;10.85;;;6.65;;